sensor_id;sensor_type;location;lat;lon;timestamp;temperature;humidity
54264;DHT22;40178;53.042;6.406;2023-05-07T00:01:54;12.90;99.90
54264;DHT22;40178;53.042;6.406;2023-05-07T00:04:19;12.70;99.90
54264;DHT22;40178;53.042;6.406;2023-05-07T00:06:46;12.90;99.90
54264;DHT22;40178;53.042;6.406;2023-05-07T00:09:11;12.80;99.90
54264;DHT22;40178;53.042;6.406;2023-05-07T00:11:37;12.80;99.90
54264;DHT22;40178;53.042;6.406;2023-05-07T00:14:02;12.80;99.90
54264;DHT22;40178;53.042;6.406;2023-05-07T00:16:28;12.80;99.90
54264;DHT22;40178;53.042;6.406;2023-05-07T00:18:53;12.80;99.90
54264;DHT22;40178;53.042;6.406;2023-05-07T00:21:19;12.80;99.90
54264;DHT22;40178;53.042;6.406;2023-05-07T00:23:45;12.80;99.90
54264;DHT22;40178;53.042;6.406;2023-05-07T00:26:10;12.90;99.90
54264;DHT22;40178;53.042;6.406;2023-05-07T00:28:36;12.70;99.90
54264;DHT22;40178;53.042;6.406;2023-05-07T00:31:01;12.70;99.90
54264;DHT22;40178;53.042;6.406;2023-05-07T00:33:27;12.80;99.90
54264;DHT22;40178;53.042;6.406;2023-05-07T00:35:53;12.70;99.90
54264;DHT22;40178;53.042;6.406;2023-05-07T00:38:20;12.60;99.90
54264;DHT22;40178;53.042;6.406;2023-05-07T00:40:45;12.70;99.90
54264;DHT22;40178;53.042;6.406;2023-05-07T00:43:11;12.60;99.90
54264;DHT22;40178;53.042;6.406;2023-05-07T00:45:38;12.60;99.90
54264;DHT22;40178;53.042;6.406;2023-05-07T00:48:04;12.60;99.90
54264;DHT22;40178;53.042;6.406;2023-05-07T00:50:30;12.60;99.90
54264;DHT22;40178;53.042;6.406;2023-05-07T00:52:56;12.60;99.90
54264;DHT22;40178;53.042;6.406;2023-05-07T00:55:23;12.50;99.90
54264;DHT22;40178;53.042;6.406;2023-05-07T00:57:49;12.50;99.90
54264;DHT22;40178;53.042;6.406;2023-05-07T01:00:15;12.50;99.90
54264;DHT22;40178;53.042;6.406;2023-05-07T01:02:42;12.50;99.90
54264;DHT22;40178;53.042;6.406;2023-05-07T01:05:14;12.40;99.90
54264;DHT22;40178;53.042;6.406;2023-05-07T01:07:42;12.40;99.90
54264;DHT22;40178;53.042;6.406;2023-05-07T01:10:08;12.40;99.90
54264;DHT22;40178;53.042;6.406;2023-05-07T01:12:36;12.30;99.90
54264;DHT22;40178;53.042;6.406;2023-05-07T01:15:03;12.30;99.90
54264;DHT22;40178;53.042;6.406;2023-05-07T01:17:30;12.30;99.90
54264;DHT22;40178;53.042;6.406;2023-05-07T01:19:58;12.30;99.90
54264;DHT22;40178;53.042;6.406;2023-05-07T01:22:31;12.40;99.90
54264;DHT22;40178;53.042;6.406;2023-05-07T01:24:58;12.30;99.90
54264;DHT22;40178;53.042;6.406;2023-05-07T01:27:25;12.20;99.90
54264;DHT22;40178;53.042;6.406;2023-05-07T01:29:51;12.30;99.90
54264;DHT22;40178;53.042;6.406;2023-05-07T01:32:19;12.20;99.90
54264;DHT22;40178;53.042;6.406;2023-05-07T01:34:48;12.20;99.90
54264;DHT22;40178;53.042;6.406;2023-05-07T01:37:15;12.20;99.90
54264;DHT22;40178;53.042;6.406;2023-05-07T01:39:42;12.20;99.90
54264;DHT22;40178;53.042;6.406;2023-05-07T01:42:07;12.20;99.90
54264;DHT22;40178;53.042;6.406;2023-05-07T01:44:33;12.20;99.90
54264;DHT22;40178;53.042;6.406;2023-05-07T01:46:59;12.10;99.90
54264;DHT22;40178;53.042;6.406;2023-05-07T01:49:25;12.10;99.90
54264;DHT22;40178;53.042;6.406;2023-05-07T01:51:51;12.10;99.90
54264;DHT22;40178;53.042;6.406;2023-05-07T01:54:17;12.10;99.90
54264;DHT22;40178;53.042;6.406;2023-05-07T01:56:42;12.10;99.90
54264;DHT22;40178;53.042;6.406;2023-05-07T01:59:08;12.00;99.90
54264;DHT22;40178;53.042;6.406;2023-05-07T02:01:33;11.90;99.90
54264;DHT22;40178;53.042;6.406;2023-05-07T02:03:59;11.90;99.90
54264;DHT22;40178;53.042;6.406;2023-05-07T02:06:24;11.90;99.90
54264;DHT22;40178;53.042;6.406;2023-05-07T02:08:50;11.80;99.90
54264;DHT22;40178;53.042;6.406;2023-05-07T02:11:16;11.80;99.90
54264;DHT22;40178;53.042;6.406;2023-05-07T02:13:41;11.70;99.90
54264;DHT22;40178;53.042;6.406;2023-05-07T02:16:07;11.70;99.90
54264;DHT22;40178;53.042;6.406;2023-05-07T02:18:32;11.70;99.90
54264;DHT22;40178;53.042;6.406;2023-05-07T02:20:58;11.60;99.90
54264;DHT22;40178;53.042;6.406;2023-05-07T02:23:24;11.70;99.90
54264;DHT22;40178;53.042;6.406;2023-05-07T02:25:51;11.60;99.90
54264;DHT22;40178;53.042;6.406;2023-05-07T02:28:16;11.60;99.90
54264;DHT22;40178;53.042;6.406;2023-05-07T02:30:42;11.60;99.90
54264;DHT22;40178;53.042;6.406;2023-05-07T02:33:07;11.60;99.90
54264;DHT22;40178;53.042;6.406;2023-05-07T02:35:33;11.50;99.90
54264;DHT22;40178;53.042;6.406;2023-05-07T02:37:59;11.50;99.90
54264;DHT22;40178;53.042;6.406;2023-05-07T02:40:28;11.50;99.90
54264;DHT22;40178;53.042;6.406;2023-05-07T02:42:53;11.50;99.90
54264;DHT22;40178;53.042;6.406;2023-05-07T02:45:19;11.40;99.90
54264;DHT22;40178;53.042;6.406;2023-05-07T02:47:44;11.50;99.90
54264;DHT22;40178;53.042;6.406;2023-05-07T02:50:10;11.50;99.90
54264;DHT22;40178;53.042;6.406;2023-05-07T02:52:36;11.40;99.90
54264;DHT22;40178;53.042;6.406;2023-05-07T02:55:01;11.50;99.90
54264;DHT22;40178;53.042;6.406;2023-05-07T02:57:27;11.40;99.90
54264;DHT22;40178;53.042;6.406;2023-05-07T02:59:53;11.40;99.90
54264;DHT22;40178;53.042;6.406;2023-05-07T03:02:19;11.30;99.90
54264;DHT22;40178;53.042;6.406;2023-05-07T03:04:45;11.30;99.90
54264;DHT22;40178;53.042;6.406;2023-05-07T03:07:11;11.30;99.90
54264;DHT22;40178;53.042;6.406;2023-05-07T03:09:36;11.20;99.90
54264;DHT22;40178;53.042;6.406;2023-05-07T03:12:02;11.30;99.90
54264;DHT22;40178;53.042;6.406;2023-05-07T03:14:27;11.20;99.90
54264;DHT22;40178;53.042;6.406;2023-05-07T03:16:53;11.40;99.90
54264;DHT22;40178;53.042;6.406;2023-05-07T03:19:19;11.20;99.90
54264;DHT22;40178;53.042;6.406;2023-05-07T03:21:44;11.20;99.90
54264;DHT22;40178;53.042;6.406;2023-05-07T03:24:10;11.20;99.90
54264;DHT22;40178;53.042;6.406;2023-05-07T03:26:35;11.10;99.90
54264;DHT22;40178;53.042;6.406;2023-05-07T03:29:01;11.10;99.90
54264;DHT22;40178;53.042;6.406;2023-05-07T03:31:27;11.10;99.90
54264;DHT22;40178;53.042;6.406;2023-05-07T03:33:54;11.10;99.90
54264;DHT22;40178;53.042;6.406;2023-05-07T03:36:21;11.10;99.90
54264;DHT22;40178;53.042;6.406;2023-05-07T03:38:47;11.10;99.90
54264;DHT22;40178;53.042;6.406;2023-05-07T03:41:13;11.10;99.90
54264;DHT22;40178;53.042;6.406;2023-05-07T03:43:38;11.00;99.90
54264;DHT22;40178;53.042;6.406;2023-05-07T03:46:04;11.00;99.90
54264;DHT22;40178;53.042;6.406;2023-05-07T03:48:30;11.10;99.90
54264;DHT22;40178;53.042;6.406;2023-05-07T03:50:59;11.10;99.90
54264;DHT22;40178;53.042;6.406;2023-05-07T03:53:24;11.00;99.90
54264;DHT22;40178;53.042;6.406;2023-05-07T03:55:50;11.10;99.90
54264;DHT22;40178;53.042;6.406;2023-05-07T03:58:16;11.10;99.90
54264;DHT22;40178;53.042;6.406;2023-05-07T04:00:42;11.10;99.90
54264;DHT22;40178;53.042;6.406;2023-05-07T04:03:07;11.10;99.90
54264;DHT22;40178;53.042;6.406;2023-05-07T04:05:33;11.10;99.90
54264;DHT22;40178;53.042;6.406;2023-05-07T04:07:59;11.00;99.90
54264;DHT22;40178;53.042;6.406;2023-05-07T04:10:25;11.10;99.90
54264;DHT22;40178;53.042;6.406;2023-05-07T04:12:51;11.00;99.90
54264;DHT22;40178;53.042;6.406;2023-05-07T04:15:16;11.00;99.90
54264;DHT22;40178;53.042;6.406;2023-05-07T04:17:42;11.00;99.90
54264;DHT22;40178;53.042;6.406;2023-05-07T04:20:15;11.00;99.90
54264;DHT22;40178;53.042;6.406;2023-05-07T04:22:41;11.00;99.90
54264;DHT22;40178;53.042;6.406;2023-05-07T04:25:08;11.00;99.90
54264;DHT22;40178;53.042;6.406;2023-05-07T04:27:35;11.00;99.90
54264;DHT22;40178;53.042;6.406;2023-05-07T04:30:01;11.00;99.90
54264;DHT22;40178;53.042;6.406;2023-05-07T04:32:28;11.00;99.90
54264;DHT22;40178;53.042;6.406;2023-05-07T04:34:55;11.00;99.90
54264;DHT22;40178;53.042;6.406;2023-05-07T04:37:21;11.00;99.90
54264;DHT22;40178;53.042;6.406;2023-05-07T04:39:46;11.10;99.90
54264;DHT22;40178;53.042;6.406;2023-05-07T04:42:16;11.00;99.90
54264;DHT22;40178;53.042;6.406;2023-05-07T04:44:43;11.00;99.90
54264;DHT22;40178;53.042;6.406;2023-05-07T04:47:09;11.00;99.90
54264;DHT22;40178;53.042;6.406;2023-05-07T04:49:35;11.00;99.90
54264;DHT22;40178;53.042;6.406;2023-05-07T04:52:01;11.00;99.90
54264;DHT22;40178;53.042;6.406;2023-05-07T04:54:27;10.90;99.90
54264;DHT22;40178;53.042;6.406;2023-05-07T04:56:52;10.90;99.90
54264;DHT22;40178;53.042;6.406;2023-05-07T04:59:18;10.90;99.90
54264;DHT22;40178;53.042;6.406;2023-05-07T05:01:43;10.90;99.90
54264;DHT22;40178;53.042;6.406;2023-05-07T05:04:09;10.90;99.90
54264;DHT22;40178;53.042;6.406;2023-05-07T05:06:35;11.00;99.90
54264;DHT22;40178;53.042;6.406;2023-05-07T05:09:01;10.90;99.90
54264;DHT22;40178;53.042;6.406;2023-05-07T05:11:26;10.90;99.90
54264;DHT22;40178;53.042;6.406;2023-05-07T05:13:52;10.90;99.90
54264;DHT22;40178;53.042;6.406;2023-05-07T05:16:18;11.00;99.90
54264;DHT22;40178;53.042;6.406;2023-05-07T05:18:43;11.00;99.90
54264;DHT22;40178;53.042;6.406;2023-05-07T05:21:09;10.90;99.90
54264;DHT22;40178;53.042;6.406;2023-05-07T05:23:34;10.90;99.90
54264;DHT22;40178;53.042;6.406;2023-05-07T05:26:00;11.00;99.90
54264;DHT22;40178;53.042;6.406;2023-05-07T05:28:26;11.00;99.90
54264;DHT22;40178;53.042;6.406;2023-05-07T05:30:52;11.00;99.90
54264;DHT22;40178;53.042;6.406;2023-05-07T05:33:18;11.00;99.90
54264;DHT22;40178;53.042;6.406;2023-05-07T05:35:44;11.00;99.90
54264;DHT22;40178;53.042;6.406;2023-05-07T05:38:10;10.90;99.90
54264;DHT22;40178;53.042;6.406;2023-05-07T05:40:35;11.00;99.90
54264;DHT22;40178;53.042;6.406;2023-05-07T05:43:01;11.00;99.90
54264;DHT22;40178;53.042;6.406;2023-05-07T05:45:27;11.00;99.90
54264;DHT22;40178;53.042;6.406;2023-05-07T05:47:52;11.10;99.90
54264;DHT22;40178;53.042;6.406;2023-05-07T05:50:18;11.10;99.90
54264;DHT22;40178;53.042;6.406;2023-05-07T05:52:44;11.00;99.90
54264;DHT22;40178;53.042;6.406;2023-05-07T05:55:09;11.10;99.90
54264;DHT22;40178;53.042;6.406;2023-05-07T05:57:35;11.20;99.90
54264;DHT22;40178;53.042;6.406;2023-05-07T06:00:02;11.10;99.90
54264;DHT22;40178;53.042;6.406;2023-05-07T06:02:28;11.10;99.90
54264;DHT22;40178;53.042;6.406;2023-05-07T06:04:53;11.20;99.90
54264;DHT22;40178;53.042;6.406;2023-05-07T06:07:19;11.10;99.90
54264;DHT22;40178;53.042;6.406;2023-05-07T06:09:45;11.10;99.90
54264;DHT22;40178;53.042;6.406;2023-05-07T06:12:11;11.10;99.90
54264;DHT22;40178;53.042;6.406;2023-05-07T06:14:37;11.20;99.90
54264;DHT22;40178;53.042;6.406;2023-05-07T06:17:02;11.20;99.90
54264;DHT22;40178;53.042;6.406;2023-05-07T06:19:28;11.40;99.90
54264;DHT22;40178;53.042;6.406;2023-05-07T06:21:54;11.50;99.90
54264;DHT22;40178;53.042;6.406;2023-05-07T06:24:21;11.50;99.90
54264;DHT22;40178;53.042;6.406;2023-05-07T06:26:47;11.50;99.90
54264;DHT22;40178;53.042;6.406;2023-05-07T06:29:13;11.60;99.90
54264;DHT22;40178;53.042;6.406;2023-05-07T06:31:39;11.60;99.90
54264;DHT22;40178;53.042;6.406;2023-05-07T06:34:04;11.60;99.90
54264;DHT22;40178;53.042;6.406;2023-05-07T06:36:30;11.60;99.90
54264;DHT22;40178;53.042;6.406;2023-05-07T06:38:56;11.60;99.90
54264;DHT22;40178;53.042;6.406;2023-05-07T06:41:22;11.60;99.90
54264;DHT22;40178;53.042;6.406;2023-05-07T06:43:47;11.70;99.90
54264;DHT22;40178;53.042;6.406;2023-05-07T06:46:13;11.70;99.90
54264;DHT22;40178;53.042;6.406;2023-05-07T06:48:38;11.70;99.90
54264;DHT22;40178;53.042;6.406;2023-05-07T06:51:04;11.70;99.90
54264;DHT22;40178;53.042;6.406;2023-05-07T06:53:30;11.70;99.90
54264;DHT22;40178;53.042;6.406;2023-05-07T06:55:56;11.70;99.90
54264;DHT22;40178;53.042;6.406;2023-05-07T06:58:22;11.70;99.90
54264;DHT22;40178;53.042;6.406;2023-05-07T07:00:48;11.70;99.90
54264;DHT22;40178;53.042;6.406;2023-05-07T07:03:13;11.80;99.90
54264;DHT22;40178;53.042;6.406;2023-05-07T07:05:41;11.90;99.90
54264;DHT22;40178;53.042;6.406;2023-05-07T07:08:07;11.90;99.90
54264;DHT22;40178;53.042;6.406;2023-05-07T07:10:32;11.90;99.90
54264;DHT22;40178;53.042;6.406;2023-05-07T07:12:58;11.90;99.90
54264;DHT22;40178;53.042;6.406;2023-05-07T07:15:23;11.90;99.90
54264;DHT22;40178;53.042;6.406;2023-05-07T07:17:50;12.00;99.90
54264;DHT22;40178;53.042;6.406;2023-05-07T07:20:16;12.20;99.90
54264;DHT22;40178;53.042;6.406;2023-05-07T07:22:42;12.10;99.90
54264;DHT22;40178;53.042;6.406;2023-05-07T07:25:08;12.00;99.90
54264;DHT22;40178;53.042;6.406;2023-05-07T07:27:34;12.10;99.90
54264;DHT22;40178;53.042;6.406;2023-05-07T07:29:59;12.00;99.90
54264;DHT22;40178;53.042;6.406;2023-05-07T07:32:25;11.90;99.90
54264;DHT22;40178;53.042;6.406;2023-05-07T07:34:51;12.00;99.90
54264;DHT22;40178;53.042;6.406;2023-05-07T07:37:17;12.10;99.90
54264;DHT22;40178;53.042;6.406;2023-05-07T07:39:42;12.20;99.90
54264;DHT22;40178;53.042;6.406;2023-05-07T07:42:08;12.20;99.90
54264;DHT22;40178;53.042;6.406;2023-05-07T07:44:34;12.40;99.90
54264;DHT22;40178;53.042;6.406;2023-05-07T07:46:59;12.50;99.90
54264;DHT22;40178;53.042;6.406;2023-05-07T07:49:26;12.40;99.90
54264;DHT22;40178;53.042;6.406;2023-05-07T07:51:52;12.30;99.90
54264;DHT22;40178;53.042;6.406;2023-05-07T07:54:17;12.30;99.90
54264;DHT22;40178;53.042;6.406;2023-05-07T07:56:43;12.30;99.90
54264;DHT22;40178;53.042;6.406;2023-05-07T07:59:09;12.40;99.90
54264;DHT22;40178;53.042;6.406;2023-05-07T08:01:34;12.30;99.90
54264;DHT22;40178;53.042;6.406;2023-05-07T08:04:00;12.50;99.90
54264;DHT22;40178;53.042;6.406;2023-05-07T08:06:28;12.60;99.90
54264;DHT22;40178;53.042;6.406;2023-05-07T08:08:54;12.80;99.90
54264;DHT22;40178;53.042;6.406;2023-05-07T08:11:20;12.80;99.90
54264;DHT22;40178;53.042;6.406;2023-05-07T08:13:46;13.00;99.90
54264;DHT22;40178;53.042;6.406;2023-05-07T08:16:12;13.00;99.90
54264;DHT22;40178;53.042;6.406;2023-05-07T08:18:38;12.90;99.90
54264;DHT22;40178;53.042;6.406;2023-05-07T08:21:04;13.00;99.90
54264;DHT22;40178;53.042;6.406;2023-05-07T08:23:29;13.00;99.90
54264;DHT22;40178;53.042;6.406;2023-05-07T08:25:55;13.20;99.90
54264;DHT22;40178;53.042;6.406;2023-05-07T08:28:21;13.20;99.90
54264;DHT22;40178;53.042;6.406;2023-05-07T08:30:47;13.30;99.90
54264;DHT22;40178;53.042;6.406;2023-05-07T08:33:12;13.10;99.90
54264;DHT22;40178;53.042;6.406;2023-05-07T08:35:38;13.30;99.90
54264;DHT22;40178;53.042;6.406;2023-05-07T08:38:04;13.50;99.90
54264;DHT22;40178;53.042;6.406;2023-05-07T08:40:33;13.50;99.90
54264;DHT22;40178;53.042;6.406;2023-05-07T08:43:02;13.50;99.90
54264;DHT22;40178;53.042;6.406;2023-05-07T08:45:30;13.60;99.90
54264;DHT22;40178;53.042;6.406;2023-05-07T08:47:59;13.70;99.90
54264;DHT22;40178;53.042;6.406;2023-05-07T08:50:25;13.80;99.90
54264;DHT22;40178;53.042;6.406;2023-05-07T08:52:51;13.90;99.90
54264;DHT22;40178;53.042;6.406;2023-05-07T08:55:17;14.10;99.90
54264;DHT22;40178;53.042;6.406;2023-05-07T08:57:43;14.20;99.90
54264;DHT22;40178;53.042;6.406;2023-05-07T09:00:09;14.20;99.90
54264;DHT22;40178;53.042;6.406;2023-05-07T09:02:36;14.40;99.90
54264;DHT22;40178;53.042;6.406;2023-05-07T09:05:02;14.40;99.90
54264;DHT22;40178;53.042;6.406;2023-05-07T09:07:28;14.40;99.90
54264;DHT22;40178;53.042;6.406;2023-05-07T09:09:54;14.50;99.90
54264;DHT22;40178;53.042;6.406;2023-05-07T09:12:23;14.60;99.90
54264;DHT22;40178;53.042;6.406;2023-05-07T09:14:49;14.80;99.90
54264;DHT22;40178;53.042;6.406;2023-05-07T09:17:16;14.70;99.90
54264;DHT22;40178;53.042;6.406;2023-05-07T09:19:46;14.90;99.90
54264;DHT22;40178;53.042;6.406;2023-05-07T09:22:12;15.00;99.90
54264;DHT22;40178;53.042;6.406;2023-05-07T09:24:38;15.10;99.90
54264;DHT22;40178;53.042;6.406;2023-05-07T09:27:04;14.90;99.90
54264;DHT22;40178;53.042;6.406;2023-05-07T09:29:30;14.60;97.60
54264;DHT22;40178;53.042;6.406;2023-05-07T09:32:08;14.80;99.90
54264;DHT22;40178;53.042;6.406;2023-05-07T09:34:34;15.00;99.90
54264;DHT22;40178;53.042;6.406;2023-05-07T09:37:02;15.00;99.00
54264;DHT22;40178;53.042;6.406;2023-05-07T09:39:42;15.10;99.20
54264;DHT22;40178;53.042;6.406;2023-05-07T09:42:08;15.20;99.90
54264;DHT22;40178;53.042;6.406;2023-05-07T09:44:35;15.20;99.90
54264;DHT22;40178;53.042;6.406;2023-05-07T09:47:02;15.40;99.90
54264;DHT22;40178;53.042;6.406;2023-05-07T09:49:30;15.40;96.00
54264;DHT22;40178;53.042;6.406;2023-05-07T09:51:56;15.70;99.90
54264;DHT22;40178;53.042;6.406;2023-05-07T09:54:22;15.80;99.00
54264;DHT22;40178;53.042;6.406;2023-05-07T09:56:48;15.90;98.60
54264;DHT22;40178;53.042;6.406;2023-05-07T09:59:16;15.90;97.20
54264;DHT22;40178;53.042;6.406;2023-05-07T10:01:43;16.20;98.10
54264;DHT22;40178;53.042;6.406;2023-05-07T10:04:09;16.00;92.00
54264;DHT22;40178;53.042;6.406;2023-05-07T10:06:36;16.00;85.60
54264;DHT22;40178;53.042;6.406;2023-05-07T10:09:03;16.00;91.20
54264;DHT22;40178;53.042;6.406;2023-05-07T10:11:34;15.80;97.90
54264;DHT22;40178;53.042;6.406;2023-05-07T10:14:01;15.90;99.90
54264;DHT22;40178;53.042;6.406;2023-05-07T10:16:31;16.10;98.80
54264;DHT22;40178;53.042;6.406;2023-05-07T10:18:58;16.00;83.20
54264;DHT22;40178;53.042;6.406;2023-05-07T10:21:26;16.00;83.10
54264;DHT22;40178;53.042;6.406;2023-05-07T10:24:25;16.00;89.60
54264;DHT22;40178;53.042;6.406;2023-05-07T10:26:52;16.30;96.00
54264;DHT22;40178;53.042;6.406;2023-05-07T10:34:50;16.80;70.20
54264;DHT22;40178;53.042;6.406;2023-05-07T10:37:18;17.10;90.20
54264;DHT22;40178;53.042;6.406;2023-05-07T10:39:44;16.90;64.90
54264;DHT22;40178;53.042;6.406;2023-05-07T10:42:11;17.00;62.60
54264;DHT22;40178;53.042;6.406;2023-05-07T10:44:37;17.20;93.00
54264;DHT22;40178;53.042;6.406;2023-05-07T10:47:07;17.50;97.30
54264;DHT22;40178;53.042;6.406;2023-05-07T10:52:20;17.40;87.80
54264;DHT22;40178;53.042;6.406;2023-05-07T10:54:46;17.40;93.40
54264;DHT22;40178;53.042;6.406;2023-05-07T10:59:56;17.30;70.70
54264;DHT22;40178;53.042;6.406;2023-05-07T11:02:22;17.20;78.60
54264;DHT22;40178;53.042;6.406;2023-05-07T11:05:23;17.30;87.60
54264;DHT22;40178;53.042;6.406;2023-05-07T11:08:02;17.40;64.80
54264;DHT22;40178;53.042;6.406;2023-05-07T11:10:51;17.60;87.70
54264;DHT22;40178;53.042;6.406;2023-05-07T11:13:18;17.80;85.80
54264;DHT22;40178;53.042;6.406;2023-05-07T11:15:48;18.00;92.30
54264;DHT22;40178;53.042;6.406;2023-05-07T11:18:15;17.90;72.60
54264;DHT22;40178;53.042;6.406;2023-05-07T11:20:45;17.90;88.40
54264;DHT22;40178;53.042;6.406;2023-05-07T11:26:00;17.80;60.40
54264;DHT22;40178;53.042;6.406;2023-05-07T11:28:28;17.80;70.90
54264;DHT22;40178;53.042;6.406;2023-05-07T11:30:54;17.90;84.20
54264;DHT22;40178;53.042;6.406;2023-05-07T11:33:20;17.90;86.70
54264;DHT22;40178;53.042;6.406;2023-05-07T11:35:46;17.90;90.80
54264;DHT22;40178;53.042;6.406;2023-05-07T11:38:13;17.90;88.70
54264;DHT22;40178;53.042;6.406;2023-05-07T11:40:58;17.50;70.30
54264;DHT22;40178;53.042;6.406;2023-05-07T11:43:26;17.70;75.40
54264;DHT22;40178;53.042;6.406;2023-05-07T11:45:52;17.90;91.50
54264;DHT22;40178;53.042;6.406;2023-05-07T11:48:18;17.80;79.70
54264;DHT22;40178;53.042;6.406;2023-05-07T11:51:05;18.10;90.00
54264;DHT22;40178;53.042;6.406;2023-05-07T11:53:39;18.10;61.10
54264;DHT22;40178;53.042;6.406;2023-05-07T11:56:09;18.20;76.00
54264;DHT22;40178;53.042;6.406;2023-05-07T11:58:36;18.10;53.10
54264;DHT22;40178;53.042;6.406;2023-05-07T12:01:02;18.40;71.70
54264;DHT22;40178;53.042;6.406;2023-05-07T12:03:27;18.40;86.70
54264;DHT22;40178;53.042;6.406;2023-05-07T12:05:53;18.30;79.10
54264;DHT22;40178;53.042;6.406;2023-05-07T12:08:20;18.20;70.60
54264;DHT22;40178;53.042;6.406;2023-05-07T12:10:50;18.30;61.20
54264;DHT22;40178;53.042;6.406;2023-05-07T12:13:25;18.20;70.10
54264;DHT22;40178;53.042;6.406;2023-05-07T12:15:55;18.40;67.60
54264;DHT22;40178;53.042;6.406;2023-05-07T12:18:22;18.60;84.10
54264;DHT22;40178;53.042;6.406;2023-05-07T12:20:48;18.60;59.50
54264;DHT22;40178;53.042;6.406;2023-05-07T12:23:15;18.50;63.70
54264;DHT22;40178;53.042;6.406;2023-05-07T12:25:42;18.40;47.70
54264;DHT22;40178;53.042;6.406;2023-05-07T12:28:18;18.50;68.70
54264;DHT22;40178;53.042;6.406;2023-05-07T12:30:46;18.60;38.30
54264;DHT22;40178;53.042;6.406;2023-05-07T12:33:13;18.60;40.00
54264;DHT22;40178;53.042;6.406;2023-05-07T12:35:42;18.50;15.60
54264;DHT22;40178;53.042;6.406;2023-05-07T12:38:11;18.50;70.70
54264;DHT22;40178;53.042;6.406;2023-05-07T12:40:41;18.60;70.60
54264;DHT22;40178;53.042;6.406;2023-05-07T12:43:15;18.50;60.00
54264;DHT22;40178;53.042;6.406;2023-05-07T12:45:41;18.40;63.90
54264;DHT22;40178;53.042;6.406;2023-05-07T12:48:10;18.50;77.80
54264;DHT22;40178;53.042;6.406;2023-05-07T12:50:36;18.30;41.80
54264;DHT22;40178;53.042;6.406;2023-05-07T12:53:03;18.30;70.60
54264;DHT22;40178;53.042;6.406;2023-05-07T12:55:31;18.30;77.90
54264;DHT22;40178;53.042;6.406;2023-05-07T12:58:01;18.20;70.70
54264;DHT22;40178;53.042;6.406;2023-05-07T13:00:37;18.30;58.10
54264;DHT22;40178;53.042;6.406;2023-05-07T13:03:04;18.20;57.80
54264;DHT22;40178;53.042;6.406;2023-05-07T13:05:31;18.20;45.60
54264;DHT22;40178;53.042;6.406;2023-05-07T13:07:57;18.50;81.40
54264;DHT22;40178;53.042;6.406;2023-05-07T13:10:23;18.70;84.40
54264;DHT22;40178;53.042;6.406;2023-05-07T13:12:50;18.70;25.30
54264;DHT22;40178;53.042;6.406;2023-05-07T13:15:16;18.80;64.60
54264;DHT22;40178;53.042;6.406;2023-05-07T13:17:42;18.80;10.90
54264;DHT22;40178;53.042;6.406;2023-05-07T13:20:09;18.80;44.90
54264;DHT22;40178;53.042;6.406;2023-05-07T13:22:35;19.00;59.60
54264;DHT22;40178;53.042;6.406;2023-05-07T13:25:01;19.20;81.80
54264;DHT22;40178;53.042;6.406;2023-05-07T13:27:27;19.30;48.10
54264;DHT22;40178;53.042;6.406;2023-05-07T13:29:52;19.30;69.40
54264;DHT22;40178;53.042;6.406;2023-05-07T13:32:18;19.10;52.00
54264;DHT22;40178;53.042;6.406;2023-05-07T13:34:44;19.30;31.90
54264;DHT22;40178;53.042;6.406;2023-05-07T13:37:09;19.30;35.40
54264;DHT22;40178;53.042;6.406;2023-05-07T13:39:36;19.20;18.50
54264;DHT22;40178;53.042;6.406;2023-05-07T13:42:01;19.20;66.00
54264;DHT22;40178;53.042;6.406;2023-05-07T13:44:27;19.30;40.90
54264;DHT22;40178;53.042;6.406;2023-05-07T13:46:53;19.30;24.60
54264;DHT22;40178;53.042;6.406;2023-05-07T13:49:18;19.50;18.10
54264;DHT22;40178;53.042;6.406;2023-05-07T13:51:44;19.90;66.60
54264;DHT22;40178;53.042;6.406;2023-05-07T13:54:09;20.20;67.20
54264;DHT22;40178;53.042;6.406;2023-05-07T13:56:35;20.30;73.10
54264;DHT22;40178;53.042;6.406;2023-05-07T13:59:01;20.40;1.00
54264;DHT22;40178;53.042;6.406;2023-05-07T14:01:27;20.70;1.00
54264;DHT22;40178;53.042;6.406;2023-05-07T14:03:52;20.90;41.50
54264;DHT22;40178;53.042;6.406;2023-05-07T14:06:18;21.30;68.30
54264;DHT22;40178;53.042;6.406;2023-05-07T14:08:44;21.20;26.90
54264;DHT22;40178;53.042;6.406;2023-05-07T14:11:09;21.20;4.30
54264;DHT22;40178;53.042;6.406;2023-05-07T14:13:36;20.90;17.20
54264;DHT22;40178;53.042;6.406;2023-05-07T14:16:03;20.80;1.00
54264;DHT22;40178;53.042;6.406;2023-05-07T14:18:29;21.00;29.20
54264;DHT22;40178;53.042;6.406;2023-05-07T14:20:54;21.00;1.00
54264;DHT22;40178;53.042;6.406;2023-05-07T14:23:20;20.80;1.00
54264;DHT22;40178;53.042;6.406;2023-05-07T14:25:50;20.70;1.00
54264;DHT22;40178;53.042;6.406;2023-05-07T14:28:16;20.80;27.00
54264;DHT22;40178;53.042;6.406;2023-05-07T14:30:42;20.70;19.20
54264;DHT22;40178;53.042;6.406;2023-05-07T14:33:07;20.70;13.20
54264;DHT22;40178;53.042;6.406;2023-05-07T14:35:33;20.90;1.00
54264;DHT22;40178;53.042;6.406;2023-05-07T14:37:58;21.00;12.10
54264;DHT22;40178;53.042;6.406;2023-05-07T14:40:24;21.40;1.00
54264;DHT22;40178;53.042;6.406;2023-05-07T14:42:50;21.30;1.00
54264;DHT22;40178;53.042;6.406;2023-05-07T14:45:15;21.30;99.90
54264;DHT22;40178;53.042;6.406;2023-05-07T14:47:41;21.10;1.00
54264;DHT22;40178;53.042;6.406;2023-05-07T14:50:07;21.20;1.00
54264;DHT22;40178;53.042;6.406;2023-05-07T14:52:32;21.00;99.90
54264;DHT22;40178;53.042;6.406;2023-05-07T14:54:58;21.00;99.90
54264;DHT22;40178;53.042;6.406;2023-05-07T14:57:24;21.20;27.40
54264;DHT22;40178;53.042;6.406;2023-05-07T14:59:49;21.10;1.00
54264;DHT22;40178;53.042;6.406;2023-05-07T15:02:15;21.10;99.90
54264;DHT22;40178;53.042;6.406;2023-05-07T15:04:41;20.60;1.00
54264;DHT22;40178;53.042;6.406;2023-05-07T15:07:15;20.60;99.90
54264;DHT22;40178;53.042;6.406;2023-05-07T15:09:42;20.70;99.90
54264;DHT22;40178;53.042;6.406;2023-05-07T15:12:07;20.90;1.00
54264;DHT22;40178;53.042;6.406;2023-05-07T15:14:34;20.80;1.00
54264;DHT22;40178;53.042;6.406;2023-05-07T15:17:00;20.90;81.80
54264;DHT22;40178;53.042;6.406;2023-05-07T15:19:25;20.90;99.90
54264;DHT22;40178;53.042;6.406;2023-05-07T15:21:55;21.00;99.90
54264;DHT22;40178;53.042;6.406;2023-05-07T15:24:22;20.90;99.90
54264;DHT22;40178;53.042;6.406;2023-05-07T15:26:48;21.00;70.50
54264;DHT22;40178;53.042;6.406;2023-05-07T15:29:13;21.20;90.70
54264;DHT22;40178;53.042;6.406;2023-05-07T15:31:39;21.10;1.00
54264;DHT22;40178;53.042;6.406;2023-05-07T15:34:05;21.20;1.00
54264;DHT22;40178;53.042;6.406;2023-05-07T15:36:31;21.30;1.00
54264;DHT22;40178;53.042;6.406;2023-05-07T15:38:57;21.90;1.00
54264;DHT22;40178;53.042;6.406;2023-05-07T15:41:22;22.10;1.00
54264;DHT22;40178;53.042;6.406;2023-05-07T15:43:50;22.60;99.90